Time;durP1;ratioP1;P1;durP2;ratioP2;P2;SDS_P1;SDS_P2;PMS_P1;PMS_P2;Temp;Humidity;BMP_temperature;BMP_pressure;BME280_temperature;BME280_humidity;BME280_pressure;Samples;Min_cycle;Max_cycle;Signal;HPM_P1;HPM_P2
2024/01/20 06:43:50;;;;;;;12.30;6.40;;;;;;;;;;10480189;28;20417;-85
2024/01/20 06:48:52;;;;;;;12.75;7.75;;;;;;;;;;10462896;28;20030;-85
2024/01/20 06:53:57;;;;;;;17.95;11.05;;;;;;;;;;10465675;28;20449;-85
2024/01/20 06:58:58;;;;;;;16.67;10.48;;;;;;;;;;10477370;28;20037;-84
2024/01/20 07:03:59;;;;;;;11.98;7.50;;;;;;;;;;10496792;28;20025;-84
2024/01/20 07:09:02;;;;;;;14.05;8.27;;;;;;;;;;10481718;28;20060;-85
2024/01/20 07:14:05;;;;;;;8.70;5.28;;;;;;;;;;10467050;28;20037;-87
2024/01/20 07:19:06;;;;;;;12.10;7.07;;;;;;;;;;10457627;28;20115;-87
2024/01/20 07:24:07;;;;;;;13.45;7.50;;;;;;;;;;10456072;28;20656;-87
2024/01/20 07:29:08;;;;;;;19.67;12.18;;;;;;;;;;10485318;28;20037;-85
2024/01/20 07:34:09;;;;;;;15.02;8.90;;;;;;;;;;10486997;28;20032;-86
2024/01/20 07:39:10;;;;;;;10.18;6.60;;;;;;;;;;10470909;28;20392;-86
2024/01/20 07:44:11;;;;;;;14.68;8.95;;;;;;;;;;10470632;28;20033;-86
2024/01/20 07:49:12;;;;;;;19.38;12.10;;;;;;;;;;10471981;28;20489;-86
2024/01/20 07:54:16;;;;;;;12.20;7.70;;;;;;;;;;10440548;28;20034;-87
2024/01/20 07:59:17;;;;;;;13.57;8.13;;;;;;;;;;10427618;28;20521;-86
2024/01/20 08:04:18;;;;;;;9.77;6.30;;;;;;;;;;10428065;28;20132;-83
2024/01/20 08:09:20;;;;;;;12.35;7.30;;;;;;;;;;10438597;28;20021;-86
2024/01/20 08:14:22;;;;;;;12.65;7.28;;;;;;;;;;10449743;28;20079;-84
2024/01/20 08:19:28;;;;;;;15.30;9.10;;;;;;;;;;10458256;28;20060;-84
2024/01/20 08:30:57;;;;;;;13.18;8.38;;;;;;;;;;10427109;28;20048;-83
2024/01/20 08:36:27;;;;;;;11.52;7.43;;;;;;;;;;10425900;28;20053;-83
2024/01/20 08:53:23;;;;;;;11.45;6.05;;;;;;;;;;10431272;28;20037;-84
2024/01/20 09:04:56;;;;;;;11.23;6.97;;;;;;;;;;10340522;28;20042;-84
2024/01/20 09:10:22;;;;;;;10.48;6.63;;;;;;;;;;10331375;28;20128;-83
2024/01/20 09:26:47;;;;;;;8.48;4.97;;;;;;;;;;10353561;28;20054;-84
2024/01/20 09:31:48;;;;;;;10.15;5.32;;;;;;;;;;10454421;28;20464;-82
2024/01/20 09:36:52;;;;;;;9.40;6.32;;;;;;;;;;10478793;28;20056;-82
2024/01/20 09:42:09;;;;;;;8.00;5.00;;;;;;;;;;10487904;28;20041;-83
2024/01/20 09:47:23;;;;;;;6.47;4.50;;;;;;;;;;10463896;28;20041;-84
2024/01/20 09:53:22;;;;;;;8.88;5.28;;;;;;;;;;10469847;28;20045;-84
2024/01/20 09:58:45;;;;;;;7.10;4.88;;;;;;;;;;10453034;28;20029;-84
2024/01/20 10:04:06;;;;;;;6.45;4.53;;;;;;;;;;10474562;28;20041;-84
2024/01/20 10:09:55;;;;;;;6.68;4.25;;;;;;;;;;10428315;28;20030;-83
2024/01/20 10:15:18;;;;;;;5.70;4.10;;;;;;;;;;10349012;28;20018;-83
2024/01/20 10:26:30;;;;;;;6.03;4.03;;;;;;;;;;10488273;28;20084;-84
2024/01/20 10:31:33;;;;;;;5.40;3.90;;;;;;;;;;10471351;28;20032;-83
2024/01/20 10:37:00;;;;;;;7.43;3.65;;;;;;;;;;10473458;28;20037;-85
2024/01/20 10:53:41;;;;;;;6.47;4.13;;;;;;;;;;10340402;28;20042;-84
2024/01/20 10:58:45;;;;;;;6.10;3.83;;;;;;;;;;10394216;28;20051;-85
2024/01/20 11:03:46;;;;;;;6.75;4.07;;;;;;;;;;10471988;28;20072;-84
2024/01/20 11:09:00;;;;;;;6.25;3.80;;;;;;;;;;10457008;28;20052;-85
2024/01/20 11:14:04;;;;;;;6.40;4.32;;;;;;;;;;10454919;28;20123;-84
2024/01/20 11:19:20;;;;;;;8.07;4.88;;;;;;;;;;10451639;28;20033;-83
2024/01/20 11:24:37;;;;;;;4.88;3.17;;;;;;;;;;10440133;28;20037;-83
2024/01/20 11:30:08;;;;;;;4.90;2.72;;;;;;;;;;10470650;28;20033;-84
2024/01/20 11:35:30;;;;;;;5.75;3.97;;;;;;;;;;10470352;28;20028;-83
2024/01/20 11:40:35;;;;;;;4.05;3.10;;;;;;;;;;10450792;28;20392;-84
2024/01/20 11:45:45;;;;;;;5.95;2.72;;;;;;;;;;10474369;28;20512;-83
2024/01/20 11:51:22;;;;;;;6.32;3.47;;;;;;;;;;10463870;28;20107;-84
2024/01/20 11:56:25;;;;;;;4.43;2.30;;;;;;;;;;10456997;28;20044;-84
2024/01/20 12:01:39;;;;;;;4.45;3.20;;;;;;;;;;10456442;28;20035;-85
2024/01/20 12:06:43;;;;;;;5.70;3.83;;;;;;;;;;10475762;28;20036;-85
2024/01/20 12:12:04;;;;;;;4.28;2.95;;;;;;;;;;10457032;28;20032;-85
2024/01/20 12:17:22;;;;;;;5.65;3.50;;;;;;;;;;10455838;28;20067;-85
2024/01/20 12:22:59;;;;;;;6.55;2.78;;;;;;;;;;10472489;28;20069;-85
2024/01/20 12:33:50;;;;;;;3.67;2.50;;;;;;;;;;10431998;28;20029;-86
2024/01/20 12:39:13;;;;;;;6.15;3.63;;;;;;;;;;10418807;28;20040;-85
2024/01/20 12:44:45;;;;;;;4.90;3.25;;;;;;;;;;10448316;28;20064;-84
2024/01/20 12:50:06;;;;;;;5.10;3.35;;;;;;;;;;10470376;28;20029;-85
2024/01/20 12:55:40;;;;;;;4.03;2.05;;;;;;;;;;10462818;23;20037;-82
2024/01/20 13:00:54;;;;;;;5.65;3.65;;;;;;;;;;10433238;28;20129;-83
2024/01/20 13:06:45;;;;;;;5.97;2.78;;;;;;;;;;10431794;28;20022;-83
2024/01/20 13:11:46;;;;;;;7.57;4.40;;;;;;;;;;10425781;28;20401;-81
2024/01/20 13:16:47;;;;;;;6.70;4.68;;;;;;;;;;10421833;28;20036;-83
2024/01/20 13:21:49;;;;;;;3.78;2.45;;;;;;;;;;10428279;28;20417;-82
2024/01/20 13:26:50;;;;;;;4.72;3.28;;;;;;;;;;10423282;28;20093;-81
2024/01/20 13:31:51;;;;;;;;;;;;;;;;;;10424736;28;20104;-82
2024/01/20 13:36:52;;;;;;;9.03;3.97;;;;;;;;;;10431653;28;19952;-82
2024/01/20 13:41:53;;;;;;;4.15;2.58;;;;;;;;;;10428834;28;20292;-82
2024/01/20 13:46:55;;;;;;;5.43;3.00;;;;;;;;;;10424951;28;20049;-82
2024/01/20 13:51:57;;;;;;;8.30;5.25;;;;;;;;;;10434363;28;20029;-83
2024/01/20 13:56:58;;;;;;;;;;;;;;;;;;10421284;28;20037;-81
2024/01/20 14:02:00;;;;;;;4.18;2.50;;;;;;;;;;10431609;28;20292;-83
2024/01/20 14:07:09;;;;;;;4.88;2.85;;;;;;;;;;10435762;28;20104;-83
2024/01/20 14:12:11;;;;;;;6.03;4.45;;;;;;;;;;10428906;28;20052;-83
2024/01/20 14:17:12;;;;;;;4.70;3.15;;;;;;;;;;10424956;28;20048;-82
2024/01/20 14:22:14;;;;;;;3.50;2.42;;;;;;;;;;10424286;28;20075;-83
2024/01/20 14:27:17;;;;;;;4.10;2.35;;;;;;;;;;10429662;28;20029;-83
2024/01/20 14:32:18;;;;;;;3.97;2.40;;;;;;;;;;10430451;28;20083;-82
2024/01/20 14:37:19;;;;;;;4.70;2.30;;;;;;;;;;10424064;28;20481;-82
2024/01/20 14:42:20;;;;;;;5.53;3.13;;;;;;;;;;10421993;28;20412;-82
2024/01/20 14:47:23;;;;;;;5.15;3.38;;;;;;;;;;10422716;28;20464;-82
2024/01/20 14:52:24;;;;;;;7.18;3.70;;;;;;;;;;10423093;28;20516;-83
2024/01/20 14:57:25;;;;;;;4.95;2.88;;;;;;;;;;10425555;28;20037;-82
2024/01/20 15:02:26;;;;;;;;;;;;;;;;;;10432751;28;20049;-81
2024/01/20 15:07:27;;;;;;;3.42;2.30;;;;;;;;;;10431324;28;19909;-83
2024/01/20 15:12:29;;;;;;;3.83;2.45;;;;;;;;;;10434885;28;20120;-81
2024/01/20 15:17:36;;;;;;;2.90;1.90;;;;;;;;;;10430506;28;20029;-81
2024/01/20 15:22:37;;;;;;;5.30;3.17;;;;;;;;;;10433006;28;20101;-81
2024/01/20 15:27:40;;;;;;;5.65;3.22;;;;;;;;;;10433872;28;20069;-81
2024/01/20 15:32:41;;;;;;;3.00;2.00;;;;;;;;;;10432189;28;20037;-82
2024/01/20 15:37:42;;;;;;;3.25;2.10;;;;;;;;;;10432494;28;20056;-81
2024/01/20 15:42:43;;;;;;;3.58;1.92;;;;;;;;;;10431112;28;20482;-81
2024/01/20 15:47:44;;;;;;;2.83;1.83;;;;;;;;;;10431760;28;20029;-81
2024/01/20 15:52:45;;;;;;;3.63;1.88;;;;;;;;;;10424286;28;20034;-81
2024/01/20 15:57:46;;;;;;;3.53;1.90;;;;;;;;;;10423124;28;20040;-82
2024/01/20 16:02:47;;;;;;;4.60;2.20;;;;;;;;;;10429415;28;20053;-82
2024/01/20 16:07:48;;;;;;;3.60;2.25;;;;;;;;;;10430625;28;20493;-82
2024/01/20 16:12:49;;;;;;;4.00;2.58;;;;;;;;;;10433693;28;20029;-82
2024/01/20 16:17:50;;;;;;;;;;;;;;;;;;10430197;28;20026;-81
2024/01/20 16:22:51;;;;;;;3.35;2.00;;;;;;;;;;10429997;28;19915;-83
2024/01/20 16:27:52;;;;;;;;;;;;;;;;;;10427002;28;20040;-82
2024/01/20 16:32:53;;;;;;;3.72;2.63;;;;;;;;;;10432833;28;19912;-83
2024/01/20 16:37:54;;;;;;;3.50;2.40;;;;;;;;;;10424899;28;20065;-82
2024/01/20 16:42:55;;;;;;;5.18;3.25;;;;;;;;;;10425294;28;20061;-82
2024/01/20 16:47:59;;;;;;;3.50;2.50;;;;;;;;;;10428904;28;20056;-82
2024/01/20 16:53:02;;;;;;;5.47;3.63;;;;;;;;;;10426960;28;20026;-82
2024/01/20 16:58:03;;;;;;;3.90;2.70;;;;;;;;;;10426580;28;20078;-82
2024/01/20 17:03:04;;;;;;;5.35;3.78;;;;;;;;;;10428180;28;20037;-82
2024/01/20 17:08:06;;;;;;;4.53;3.17;;;;;;;;;;10444490;28;20025;-82
2024/01/20 17:13:07;;;;;;;8.57;5.68;;;;;;;;;;10449762;28;20108;-82
2024/01/20 17:18:08;;;;;;;;;;;;;;;;;;10429974;28;20366;-81
2024/01/20 17:23:09;;;;;;;3.55;2.60;;;;;;;;;;10427858;28;19913;-82
2024/01/20 17:28:10;;;;;;;4.22;3.03;;;;;;;;;;10425006;28;20030;-84
2024/01/20 17:33:11;;;;;;;8.52;4.10;;;;;;;;;;10431910;28;20029;-82
2024/01/20 17:38:12;;;;;;;5.35;3.90;;;;;;;;;;10422890;28;20097;-81
2024/01/20 17:43:13;;;;;;;4.95;3.10;;;;;;;;;;10429051;28;20132;-81
2024/01/20 17:48:15;;;;;;;5.53;4.28;;;;;;;;;;10426908;28;20040;-82
2024/01/20 17:53:16;;;;;;;6.13;3.85;;;;;;;;;;10427603;28;20493;-81
2024/01/20 17:58:17;;;;;;;;;;;;;;;;;;10426479;28;20029;-81
2024/01/20 18:03:18;;;;;;;5.25;3.28;;;;;;;;;;10424160;28;19909;-82
2024/01/20 18:08:19;;;;;;;6.43;4.20;;;;;;;;;;10428861;28;20025;-82
2024/01/20 18:13:21;;;;;;;5.05;3.28;;;;;;;;;;10430782;28;20123;-83
2024/01/20 18:18:21;;;;;;;4.70;3.67;;;;;;;;;;10426786;28;20052;-81
2024/01/20 18:23:22;;;;;;;6.00;4.70;;;;;;;;;;10424624;28;20191;-81
2024/01/20 18:28:24;;;;;;;5.10;3.40;;;;;;;;;;10429960;28;20053;-82
2024/01/20 18:33:25;;;;;;;5.68;3.63;;;;;;;;;;10430140;28;20029;-82
2024/01/20 18:38:26;;;;;;;7.35;3.60;;;;;;;;;;10428644;28;20473;-82
2024/01/20 18:43:27;;;;;;;8.38;5.63;;;;;;;;;;10425652;28;20060;-83
2024/01/20 18:48:28;;;;;;;6.20;4.50;;;;;;;;;;10425138;28;20481;-83
2024/01/20 18:53:30;;;;;;;5.47;4.20;;;;;;;;;;10426048;28;20077;-82
2024/01/20 18:59:04;;;;;;;5.43;4.03;;;;;;;;;;10464468;23;20045;-86
2024/01/20 19:04:09;;;;;;;6.20;4.38;;;;;;;;;;10455881;28;20071;-85
2024/01/20 19:09:26;;;;;;;5.07;4.00;;;;;;;;;;10456267;28;20124;-86
2024/01/20 19:14:27;;;;;;;6.72;4.65;;;;;;;;;;10457520;28;20082;-85
2024/01/20 19:19:37;;;;;;;7.57;5.45;;;;;;;;;;10471449;28;20087;-86
2024/01/20 19:24:42;;;;;;;9.65;6.18;;;;;;;;;;10460636;28;20116;-85
2024/01/20 19:29:46;;;;;;;8.80;6.28;;;;;;;;;;10466292;28;20091;-86
2024/01/20 19:34:47;;;;;;;5.38;4.13;;;;;;;;;;10462857;28;20033;-85
2024/01/20 19:39:56;;;;;;;6.15;4.40;;;;;;;;;;10453890;28;20033;-86
2024/01/20 19:45:22;;;;;;;6.57;5.43;;;;;;;;;;10472551;28;20388;-86
2024/01/20 19:50:28;;;;;;;7.22;5.38;;;;;;;;;;10458450;28;20405;-85
2024/01/20 19:55:30;;;;;;;5.63;4.60;;;;;;;;;;10479042;28;20044;-85
2024/01/20 20:00:35;;;;;;;7.40;4.88;;;;;;;;;;10471263;28;20048;-86
2024/01/20 20:05:39;;;;;;;6.35;4.88;;;;;;;;;;10480279;28;20364;-85
